Saffet Bey — TCUZ — position and weather

sailwx.info

Track history (hours):
 
Tides and Currents Weather Stations Pressure Air Temp Water Temp Dewpoint Dewpoint Depression Visibility Wind Speed Wind Dir Waves Ship Positions

Saffet Bey

Last reported at 2016-Jul-01 00:33 UTC. Time now 2016-Jul-01 04:35 UTC.
Position N 44°52' E 013°21'.

Length 164 m; draft 6.9 m.

Type: Ship (hazmat cat A). MMSI: 271000419.

Date/timePositionNaut miles runAvg speedWind from/ knotsBaromVisibWave heightAir tempDewpointWater temp
2016-Jul-01 00:33N 44°52' E 013°21'1414.2
2016-Jun-30 23:34N 45°04' E 013°11'2812.0
2016-Jun-30 21:14N 45°32' E 013°18'914.0
2016-Jun-30 20:34N 45°36' E 013°29'1110.8
2016-Jun-30 19:32N 45°38' E 013°45'0 0.4
2016-Jun-30 18:21N 45°38' E 013°46'0 0.0
2016-Jun-30 17:24N 45°38' E 013°46'0 0.0
2016-Jun-30 16:33N 45°38' E 013°46'0 0.0
2016-Jun-30 15:33N 45°38' E 013°46'0 0.0
2016-Jun-30 14:33N 45°38' E 013°46'0 0.0
2016-Jun-30 13:33N 45°38' E 013°46'0 0.0
2016-Jun-30 12:24N 45°38' E 013°46'0 0.0
2016-Jun-30 11:33N 45°38' E 013°46'0 0.0
2016-Jun-30 10:33N 45°38' E 013°46'0 0.0
2016-Jun-30 09:33N 45°38' E 013°46'0 0.0
2016-Jun-30 08:33N 45°38' E 013°46'0 0.0
2016-Jun-30 07:30N 45°38' E 013°46'0 0.0
2016-Jun-30 06:33N 45°38' E 013°46'0 0.0
2016-Jun-30 05:30N 45°38' E 013°46'0 0.0
2016-Jun-30 03:11N 45°38' E 013°46'0 0.0
2016-Jun-29 23:26N 45°38' E 013°46'0 0.0
2016-Jun-29 22:29N 45°38' E 013°46'16 7.1
2016-Jun-29 20:17N 45°31' E 013°26'1014.1
2016-Jun-29 19:33N 45°24' E 013°16'1413.8
2016-Jun-29 18:33N 45°10' E 013°18'1414.3
2016-Jun-29 17:33N 44°57' E 013°26'1414.1
2016-Jun-29 16:33N 44°45' E 013°36'1414.2
2016-Jun-29 15:33N 44°33' E 013°47'1514.6
2016-Jun-29 14:33N 44°20' E 013°58'63713.0
2016-Jun-27 13:25N 36°30' E 023°23'1213.6
2016-Jun-27 12:33N 36°37' E 023°35'1414.0
2016-Jun-27 11:33N 36°44' E 023°50'1514.3
2016-Jun-27 10:33N 36°52' E 024°05'4314.5
2016-Jun-27 07:34N 37°16' E 024°50'1515.0
2016-Jun-27 06:33N 37°25' E 025°05'1614.9
2016-Jun-27 05:27N 37°35' E 025°21'1314.6
2016-Jun-27 04:33N 37°45' E 025°33'2 0.1
2016-Jun-26 11:17N 37°46' E 025°35'1014.0
2016-Jun-26 10:34N 37°39' E 025°26'1414.1
2016-Jun-26 09:33N 37°29' E 025°12'1414.1
2016-Jun-26 08:33N 37°20' E 024°58'  
2016-Jun-24 00:34N 44°60' E 013°15'1414.0
2016-Jun-23 23:34N 45°12' E 013°05'1313.1
2016-Jun-23 22:33N 45°25' E 013°08'10 0.5
2016-Jun-23 01:33N 45°16' E 013°16'1312.7
2016-Jun-23 00:32N 45°04' E 013°21'  
Track history (hours):
 
Tides and Currents Weather Stations Pressure Air Temp Water Temp Dewpoint Dewpoint Depression Visibility Wind Speed Wind Dir Waves Ship Positions

Saffet Bey

Last reported at 2016-Jul-01 00:33 UTC. Time now 2016-Jul-01 04:35 UTC.
Position N 44°52' E 013°21'.

Length 164 m; draft 6.9 m.

Type: Ship (hazmat cat A). MMSI: 271000419.

Date/timePositionNaut miles runAvg speedWind from/ knotsBaromVisibWave heightAir tempDewpointWater temp
2016-Jul-01 00:33N 44°52' E 013°21'1414.2
2016-Jun-30 23:34N 45°04' E 013°11'2812.0
2016-Jun-30 21:14N 45°32' E 013°18'914.0
2016-Jun-30 20:34N 45°36' E 013°29'1110.8
2016-Jun-30 19:32N 45°38' E 013°45'0 0.4
2016-Jun-30 18:21N 45°38' E 013°46'0 0.0
2016-Jun-30 17:24N 45°38' E 013°46'0 0.0
2016-Jun-30 16:33N 45°38' E 013°46'0 0.0
2016-Jun-30 15:33N 45°38' E 013°46'0 0.0
2016-Jun-30 14:33N 45°38' E 013°46'0 0.0
2016-Jun-30 13:33N 45°38' E 013°46'0 0.0
2016-Jun-30 12:24N 45°38' E 013°46'0 0.0
2016-Jun-30 11:33N 45°38' E 013°46'0 0.0
2016-Jun-30 10:33N 45°38' E 013°46'0 0.0
2016-Jun-30 09:33N 45°38' E 013°46'0 0.0
2016-Jun-30 08:33N 45°38' E 013°46'0 0.0
2016-Jun-30 07:30N 45°38' E 013°46'0 0.0
2016-Jun-30 06:33N 45°38' E 013°46'0 0.0
2016-Jun-30 05:30N 45°38' E 013°46'0 0.0
2016-Jun-30 03:11N 45°38' E 013°46'0 0.0
2016-Jun-29 23:26N 45°38' E 013°46'0 0.0
2016-Jun-29 22:29N 45°38' E 013°46'16 7.1
2016-Jun-29 20:17N 45°31' E 013°26'1014.1
2016-Jun-29 19:33N 45°24' E 013°16'1413.8
2016-Jun-29 18:33N 45°10' E 013°18'1414.3
2016-Jun-29 17:33N 44°57' E 013°26'1414.1
2016-Jun-29 16:33N 44°45' E 013°36'1414.2
2016-Jun-29 15:33N 44°33' E 013°47'1514.6
2016-Jun-29 14:33N 44°20' E 013°58'63713.0
2016-Jun-27 13:25N 36°30' E 023°23'1213.6
2016-Jun-27 12:33N 36°37' E 023°35'1414.0
2016-Jun-27 11:33N 36°44' E 023°50'1514.3
2016-Jun-27 10:33N 36°52' E 024°05'4314.5
2016-Jun-27 07:34N 37°16' E 024°50'1515.0
2016-Jun-27 06:33N 37°25' E 025°05'1614.9
2016-Jun-27 05:27N 37°35' E 025°21'1314.6
2016-Jun-27 04:33N 37°45' E 025°33'2 0.1
2016-Jun-26 11:17N 37°46' E 025°35'1014.0
2016-Jun-26 10:34N 37°39' E 025°26'1414.1
2016-Jun-26 09:33N 37°29' E 025°12'1414.1
2016-Jun-26 08:33N 37°20' E 024°58'  
2016-Jun-24 00:34N 44°60' E 013°15'1414.0
2016-Jun-23 23:34N 45°12' E 013°05'1313.1
2016-Jun-23 22:33N 45°25' E 013°08'10 0.5
2016-Jun-23 01:33N 45°16' E 013°16'1312.7
2016-Jun-23 00:32N 45°04' E 013°21'  

Dump ship's entire track history